createdAt,value
2018-04-30T00:00:58.178Z,214.30
2018-04-30T00:01:58.152Z,189.00
2018-04-30T00:02:58.124Z,184.60
2018-04-30T00:03:58.103Z,266.00
2018-04-30T00:04:58.073Z,218.00
2018-04-30T00:05:58.052Z,285.50
2018-04-30T00:06:58.022Z,224.50
2018-04-30T00:07:57.998Z,226.40
2018-04-30T00:08:57.976Z,244.50
2018-04-30T00:09:57.948Z,309.10
2018-04-30T00:10:57.923Z,397.10
2018-04-30T00:11:57.900Z,362.80
2018-04-30T00:12:57.880Z,257.90
2018-04-30T00:13:57.851Z,360.80
2018-04-30T00:14:57.828Z,262.40
2018-04-30T00:15:57.796Z,249.10
2018-04-30T00:16:57.777Z,284.00
2018-04-30T00:17:57.744Z,284.30
2018-04-30T00:18:57.720Z,278.70
2018-04-30T00:19:57.706Z,343.30
2018-04-30T00:20:57.667Z,328.80
2018-04-30T00:21:57.651Z,341.50
2018-04-30T00:22:57.620Z,340.80
2018-04-30T00:23:57.591Z,249.60
2018-04-30T00:24:57.571Z,257.00
2018-04-30T00:25:57.549Z,261.40
2018-04-30T00:26:57.522Z,339.20
2018-04-30T00:27:57.498Z,285.70
2018-04-30T00:28:57.466Z,315.40
2018-04-30T00:29:57.452Z,293.20
2018-04-30T00:30:57.422Z,376.80
2018-04-30T00:31:57.392Z,335.50
2018-04-30T00:32:57.365Z,401.20
2018-04-30T00:33:57.348Z,320.00
2018-04-30T00:34:57.316Z,325.60
2018-04-30T00:35:57.297Z,368.10
2018-04-30T00:36:57.272Z,384.60
2018-04-30T00:37:57.241Z,297.00
2018-04-30T00:38:57.214Z,359.50
2018-04-30T00:39:57.192Z,322.30
2018-04-30T00:40:57.173Z,277.80
2018-04-30T00:41:57.137Z,280.30
2018-04-30T00:42:57.111Z,367.50
2018-04-30T00:43:57.092Z,318.40
2018-04-30T00:44:57.065Z,330.50
2018-04-30T00:45:57.041Z,366.60
2018-04-30T00:46:57.014Z,330.00
2018-04-30T00:47:56.993Z,327.80
2018-04-30T00:48:56.962Z,396.30
2018-04-30T00:49:56.942Z,321.80
2018-04-30T00:50:56.917Z,239.50
2018-04-30T00:51:56.889Z,277.80
2018-04-30T00:52:56.866Z,271.00
2018-04-30T00:53:56.838Z,338.10
2018-04-30T00:54:56.809Z,284.10
2018-04-30T00:55:56.792Z,310.30
2018-04-30T00:56:56.763Z,178.80
2018-04-30T00:57:56.734Z,273.00
2018-04-30T00:58:56.707Z,368.30
2018-04-30T00:59:56.687Z,306.00
2018-04-30T01:00:56.665Z,304.50
2018-04-30T01:01:56.630Z,328.70
2018-04-30T01:02:56.610Z,284.30
2018-04-30T01:03:56.584Z,338.70
2018-04-30T01:04:56.558Z,256.40
2018-04-30T01:05:56.535Z,266.40
2018-04-30T01:06:56.512Z,317.40
2018-04-30T01:07:56.484Z,309.20
2018-04-30T01:08:56.461Z,258.70
2018-04-30T01:09:56.431Z,306.00
2018-04-30T01:10:56.412Z,211.20
2018-04-30T01:11:56.383Z,255.70
2018-04-30T01:12:56.360Z,270.20
2018-04-30T01:13:56.333Z,210.60
2018-04-30T01:14:56.303Z,187.50
2018-04-30T01:15:56.285Z,220.70
2018-04-30T01:16:56.261Z,213.30
2018-04-30T01:17:56.236Z,301.00
2018-04-30T01:18:56.204Z,334.00
2018-04-30T01:19:56.186Z,365.10
2018-04-30T01:20:56.158Z,204.20
2018-04-30T01:21:56.130Z,354.20
2018-04-30T01:22:56.112Z,459.20
2018-04-30T01:23:56.079Z,230.20
2018-04-30T01:24:56.056Z,228.90
2018-04-30T01:25:56.032Z,221.20
2018-04-30T01:26:56.013Z,388.00
2018-04-30T01:27:55.986Z,315.50
2018-04-30T01:28:55.957Z,332.60
2018-04-30T01:29:55.929Z,315.50
2018-04-30T01:30:55.903Z,306.50
2018-04-30T01:31:55.881Z,195.00
2018-04-30T01:32:55.854Z,195.80
2018-04-30T01:33:55.828Z,221.20
2018-04-30T01:34:55.804Z,204.50
2018-04-30T01:35:55.779Z,184.10
2018-04-30T01:36:55.753Z,207.20
2018-04-30T01:37:55.732Z,172.80
2018-04-30T01:38:55.709Z,162.50
2018-04-30T01:39:55.682Z,203.00
2018-04-30T01:40:55.661Z,188.10
2018-04-30T01:41:55.628Z,295.10
2018-04-30T01:42:55.604Z,280.70
2018-04-30T01:43:55.582Z,269.40
2018-04-30T01:44:55.555Z,345.90
2018-04-30T01:45:55.534Z,334.90
2018-04-30T01:46:55.513Z,252.20
2018-04-30T01:47:55.478Z,282.70
2018-04-30T01:48:55.457Z,321.90
2018-04-30T01:49:55.430Z,220.40
2018-04-30T01:50:55.405Z,236.40
2018-04-30T01:51:55.383Z,304.60
2018-04-30T01:52:55.353Z,308.00
2018-04-30T01:53:55.335Z,290.70
2018-04-30T01:54:55.302Z,366.10
2018-04-30T01:55:55.282Z,293.40
2018-04-30T01:56:55.260Z,264.80
2018-04-30T01:57:55.227Z,286.10
2018-04-30T01:58:55.200Z,299.20
2018-04-30T01:59:55.184Z,311.80
2018-04-30T02:00:55.156Z,275.10
2018-04-30T02:01:55.142Z,218.40
2018-04-30T02:02:55.110Z,250.10
2018-04-30T02:03:55.077Z,266.30
2018-04-30T02:04:55.061Z,269.10
2018-04-30T02:05:55.025Z,295.20
2018-04-30T02:06:55.016Z,294.40
2018-04-30T02:07:54.977Z,353.90
2018-04-30T02:08:54.959Z,414.60
2018-04-30T02:09:54.923Z,395.80
2018-04-30T02:10:54.901Z,326.50
2018-04-30T02:11:54.886Z,326.50
2018-04-30T02:12:54.850Z,326.80
2018-04-30T02:13:54.837Z,396.90
2018-04-30T02:14:54.811Z,364.80
2018-04-30T02:15:54.780Z,313.40
2018-04-30T02:16:54.758Z,321.80
2018-04-30T02:17:54.725Z,295.50
2018-04-30T02:18:54.699Z,229.30
2018-04-30T02:19:54.680Z,283.70
2018-04-30T02:20:54.656Z,313.80
2018-04-30T02:21:54.634Z,256.20
2018-04-30T02:22:54.601Z,334.90
2018-04-30T02:23:54.583Z,352.20
2018-04-30T02:24:54.550Z,411.60
2018-04-30T02:25:54.536Z,422.60
2018-04-30T02:26:54.509Z,341.50
2018-04-30T02:27:54.475Z,386.70
2018-04-30T02:28:54.460Z,379.20
2018-04-30T02:29:54.426Z,279.90
2018-04-30T02:30:54.413Z,333.90
2018-04-30T02:31:54.378Z,339.40
2018-04-30T02:32:54.359Z,337.30
2018-04-30T02:33:54.456Z,333.40
2018-04-30T02:34:54.304Z,336.40
2018-04-30T02:35:54.275Z,299.00
2018-04-30T02:36:54.251Z,350.80
2018-04-30T02:37:54.231Z,361.90
2018-04-30T02:38:54.209Z,295.70
2018-04-30T02:39:54.178Z,292.90
2018-04-30T02:40:54.160Z,291.20
2018-04-30T02:41:54.127Z,246.70
2018-04-30T02:42:54.102Z,327.20
2018-04-30T02:43:54.089Z,271.40
2018-04-30T02:44:54.054Z,231.80
2018-04-30T02:45:54.043Z,283.40
2018-04-30T02:46:54.005Z,273.10
2018-04-30T02:47:53.977Z,348.80
2018-04-30T02:48:53.963Z,312.20
2018-04-30T02:49:53.931Z,322.10
2018-04-30T02:50:53.903Z,332.30
2018-04-30T02:51:53.885Z,307.60
2018-04-30T02:52:53.861Z,278.50
2018-04-30T02:53:53.843Z,294.30
2018-04-30T02:54:53.808Z,258.90
2018-04-30T02:55:53.787Z,244.90
2018-04-30T02:56:53.759Z,284.60
2018-04-30T02:57:53.733Z,246.30
2018-04-30T02:58:53.714Z,227.30
2018-04-30T02:59:53.687Z,299.90
2018-04-30T03:00:53.660Z,294.60
2018-04-30T03:01:53.636Z,236.10
2018-04-30T03:02:53.607Z,285.00
2018-04-30T03:03:53.583Z,306.90
2018-04-30T03:04:53.557Z,313.40
2018-04-30T03:05:53.539Z,335.20
2018-04-30T03:06:53.508Z,283.70
2018-04-30T03:07:53.490Z,269.50
2018-04-30T03:08:53.460Z,323.40
2018-04-30T03:09:53.431Z,305.10
2018-04-30T03:10:53.416Z,252.30
2018-04-30T03:11:53.381Z,284.70
2018-04-30T03:12:53.364Z,266.30
2018-04-30T03:13:53.340Z,314.20
2018-04-30T03:14:53.311Z,319.20
2018-04-30T03:15:53.294Z,291.60
2018-04-30T03:16:53.264Z,300.70
2018-04-30T03:17:53.236Z,290.80
2018-04-30T03:18:53.210Z,241.70
2018-04-30T03:19:53.185Z,276.50
2018-04-30T03:20:53.165Z,340.90
2018-04-30T03:21:53.141Z,371.60
2018-04-30T03:22:53.114Z,403.00
2018-04-30T03:23:53.095Z,288.30
2018-04-30T03:24:53.062Z,325.10
2018-04-30T03:25:53.047Z,293.40
2018-04-30T03:26:53.018Z,301.10
2018-04-30T03:27:52.997Z,336.20
2018-04-30T03:28:52.963Z,366.60
2018-04-30T03:29:52.946Z,344.20
2018-04-30T03:30:52.915Z,424.90
2018-04-30T03:31:52.895Z,388.10
2018-04-30T03:32:52.872Z,370.60
2018-04-30T03:33:52.844Z,378.80
2018-04-30T03:34:52.814Z,396.60
2018-04-30T03:35:52.790Z,393.10
2018-04-30T03:36:52.769Z,382.80
2018-04-30T03:37:52.743Z,348.90
2018-04-30T03:38:52.718Z,379.40
2018-04-30T03:39:52.695Z,384.40
2018-04-30T03:40:52.675Z,338.50
2018-04-30T03:41:52.644Z,356.80
2018-04-30T03:42:52.622Z,359.10
2018-04-30T03:43:52.591Z,360.70
2018-04-30T03:44:52.572Z,342.10
2018-04-30T03:45:52.541Z,372.60
2018-04-30T03:46:52.513Z,386.60
2018-04-30T03:47:52.497Z,386.70
2018-04-30T03:48:52.465Z,381.50
2018-04-30T03:49:52.450Z,362.10
2018-04-30T03:50:52.426Z,399.00
2018-04-30T03:51:52.389Z,360.20
2018-04-30T03:52:52.376Z,359.20
2018-04-30T03:53:52.343Z,356.40
2018-04-30T03:54:52.313Z,373.70
2018-04-30T03:55:52.298Z,377.50
2018-04-30T03:56:52.269Z,396.80
2018-04-30T03:57:52.245Z,386.00
2018-04-30T03:58:52.217Z,421.20
2018-04-30T03:59:52.191Z,389.60
2018-04-30T04:00:52.165Z,407.90
2018-04-30T04:01:52.156Z,374.40
2018-04-30T04:02:52.122Z,390.60
2018-04-30T04:03:52.096Z,403.40
2018-04-30T04:04:52.071Z,408.90
2018-04-30T04:05:52.038Z,435.20
2018-04-30T04:06:52.013Z,417.20
2018-04-30T04:07:51.990Z,427.40
2018-04-30T04:08:51.961Z,422.70
2018-04-30T04:09:51.944Z,415.60
2018-04-30T04:10:51.914Z,434.80
2018-04-30T04:11:51.893Z,407.70
2018-04-30T04:12:51.862Z,429.60
2018-04-30T04:13:51.837Z,427.40
2018-04-30T04:14:51.812Z,440.00
2018-04-30T04:15:51.793Z,428.30
2018-04-30T04:16:51.770Z,442.80
2018-04-30T04:17:51.735Z,448.30
2018-04-30T04:18:51.715Z,462.50
2018-04-30T04:19:51.687Z,468.00
2018-04-30T04:20:51.660Z,462.50
2018-04-30T04:21:51.650Z,463.70
2018-04-30T04:22:51.613Z,430.10
2018-04-30T04:23:51.587Z,440.50
2018-04-30T04:24:51.561Z,443.60
2018-04-30T04:25:51.541Z,476.30
2018-04-30T04:26:51.511Z,463.30
2018-04-30T04:27:51.496Z,435.30
2018-04-30T04:28:51.456Z,478.60
2018-04-30T04:29:51.434Z,469.00
2018-04-30T04:30:51.406Z,445.80
2018-04-30T04:31:51.388Z,463.70
2018-04-30T04:32:51.356Z,470.80
2018-04-30T04:33:51.338Z,446.40
2018-04-30T04:34:51.312Z,446.80
2018-04-30T04:35:51.279Z,471.50
2018-04-30T04:36:51.267Z,471.20
2018-04-30T04:37:51.231Z,461.90
2018-04-30T04:38:51.204Z,440.20
2018-04-30T04:39:51.185Z,462.00
2018-04-30T04:40:51.155Z,457.50
2018-04-30T04:41:51.133Z,415.90
2018-04-30T04:42:51.108Z,411.70
2018-04-30T04:43:51.079Z,418.40
2018-04-30T04:44:51.062Z,437.70
2018-04-30T04:45:51.025Z,447.80
2018-04-30T04:46:51.002Z,450.80
2018-04-30T04:47:50.979Z,424.10
2018-04-30T04:48:50.952Z,414.50
2018-04-30T04:49:50.928Z,370.90
2018-04-30T04:50:50.902Z,351.40
2018-04-30T04:51:50.874Z,385.00
2018-04-30T04:52:50.850Z,415.00
2018-04-30T04:53:50.824Z,397.60
2018-04-30T04:54:50.797Z,390.60
2018-04-30T04:55:50.779Z,344.30
2018-04-30T04:56:50.745Z,358.80
2018-04-30T04:57:50.789Z,328.00
2018-04-30T04:58:50.702Z,327.30
2018-04-30T04:59:50.667Z,305.70
2018-04-30T05:00:50.652Z,335.90
2018-04-30T05:01:50.617Z,344.20
2018-04-30T05:02:50.602Z,350.20
2018-04-30T05:03:50.573Z,336.60
2018-04-30T05:04:50.544Z,328.40
2018-04-30T05:05:50.516Z,293.80
2018-04-30T05:06:50.496Z,312.70
2018-04-30T05:07:50.470Z,311.20
2018-04-30T05:08:50.444Z,294.70
2018-04-30T05:09:50.418Z,351.10
2018-04-30T05:10:50.448Z,324.50
2018-04-30T05:11:50.362Z,313.60
2018-04-30T05:12:50.349Z,313.90
2018-04-30T05:13:50.320Z,342.90
2018-04-30T05:14:50.297Z,315.80
2018-04-30T05:15:50.268Z,321.20
2018-04-30T05:16:50.233Z,284.70
2018-04-30T05:17:50.222Z,260.70
2018-04-30T05:18:50.188Z,241.20
2018-04-30T05:19:50.168Z,268.80
2018-04-30T05:20:50.219Z,251.10
2018-04-30T05:21:50.117Z,248.90
2018-04-30T05:22:50.088Z,243.20
2018-04-30T05:23:50.062Z,247.00
2018-04-30T05:24:50.034Z,264.20
2018-04-30T05:25:50.075Z,263.50
2018-04-30T05:26:49.986Z,237.40
2018-04-30T05:27:49.958Z,231.50
2018-04-30T05:28:49.928Z,250.80
2018-04-30T05:29:49.916Z,249.80
2018-04-30T05:30:49.891Z,241.00
2018-04-30T05:31:49.861Z,175.10
2018-04-30T05:32:49.855Z,162.90
2018-04-30T05:33:49.805Z,171.40
2018-04-30T05:34:49.787Z,126.60
2018-04-30T05:35:49.755Z,127.80
2018-04-30T05:36:49.725Z,111.90
2018-04-30T05:37:49.717Z,101.30
2018-04-30T05:38:49.681Z,91.80
2018-04-30T05:39:49.648Z,58.90
2018-04-30T05:40:49.633Z,58.90
2018-04-30T05:41:49.611Z,38.50
2018-04-30T05:42:49.581Z,42.00
2018-04-30T05:43:49.545Z,41.10
2018-04-30T05:44:49.534Z,39.90
2018-04-30T05:45:49.493Z,31.60
2018-04-30T05:46:49.475Z,31.40
2018-04-30T05:47:49.451Z,28.60
2018-04-30T05:48:49.436Z,30.40
2018-04-30T05:49:49.414Z,31.20
2018-04-30T05:50:50.137Z,29.20
2018-04-30T05:51:49.371Z,22.70
2018-04-30T05:52:49.317Z,21.60
2018-04-30T05:53:49.303Z,23.90
2018-04-30T05:54:49.272Z,19.40
2018-04-30T05:55:49.253Z,16.10
2018-04-30T05:56:49.234Z,18.50
2018-04-30T05:57:49.187Z,17.60
2018-04-30T05:58:49.161Z,17.20
2018-04-30T05:59:49.152Z,16.10
2018-04-30T06:00:49.116Z,17.20
2018-04-30T06:01:49.131Z,15.00
2018-04-30T06:02:49.061Z,15.50
2018-04-30T06:03:49.039Z,16.90
2018-04-30T06:04:49.010Z,13.20
2018-04-30T06:05:48.987Z,11.00
2018-04-30T06:06:49.052Z,10.90
2018-04-30T06:07:48.937Z,11.80
2018-04-30T06:08:48.915Z,11.00
2018-04-30T06:09:48.880Z,11.80
2018-04-30T06:10:48.860Z,12.20
2018-04-30T06:11:48.832Z,11.70
2018-04-30T06:12:48.809Z,12.90
2018-04-30T06:13:48.801Z,12.20
2018-04-30T06:14:48.755Z,12.10
2018-04-30T06:15:48.735Z,13.60
2018-04-30T06:16:48.709Z,12.50
2018-04-30T06:17:48.675Z,10.30
2018-04-30T06:18:48.655Z,11.50
2018-04-30T06:19:48.650Z,12.00
2018-04-30T06:20:48.622Z,9.80
2018-04-30T06:21:48.608Z,8.50
2018-04-30T06:22:48.574Z,7.30
2018-04-30T06:23:48.553Z,8.30
2018-04-30T06:24:48.527Z,8.70
2018-04-30T06:25:48.492Z,8.20
2018-04-30T06:26:48.539Z,9.60
2018-04-30T06:27:48.419Z,13.70
2018-04-30T06:28:48.403Z,16.10
2018-04-30T06:29:48.376Z,14.50
2018-04-30T06:30:48.343Z,12.20
2018-04-30T06:31:48.325Z,15.90
2018-04-30T06:32:48.318Z,12.90
2018-04-30T06:33:48.269Z,10.50
2018-04-30T06:34:48.243Z,12.40
2018-04-30T06:35:48.323Z,11.70
2018-04-30T06:36:48.200Z,10.90
2018-04-30T06:37:48.163Z,10.30
2018-04-30T06:38:48.141Z,10.10
2018-04-30T06:39:48.148Z,9.30
2018-04-30T06:40:48.090Z,13.70
2018-04-30T06:41:48.067Z,8.60
2018-04-30T06:42:48.044Z,10.60
2018-04-30T06:43:48.015Z,7.80
2018-04-30T06:44:47.993Z,8.30
2018-04-30T06:45:47.961Z,6.60
2018-04-30T06:46:47.948Z,6.70
2018-04-30T06:47:47.915Z,7.60
2018-04-30T06:48:47.891Z,8.40
2018-04-30T06:49:47.903Z,9.30
2018-04-30T06:50:47.862Z,8.60
2018-04-30T06:51:47.814Z,8.10
2018-04-30T06:52:47.806Z,11.20
2018-04-30T06:53:47.758Z,9.80
2018-04-30T06:54:47.881Z,10.80
2018-04-30T06:55:47.821Z,9.90
2018-04-30T06:56:47.681Z,12.50
2018-04-30T06:57:47.662Z,14.60
2018-04-30T06:58:47.635Z,9.80
2018-04-30T06:59:47.612Z,10.30
2018-04-30T07:00:47.585Z,12.30
2018-04-30T07:01:47.560Z,10.60
2018-04-30T07:02:47.525Z,12.00
2018-04-30T07:03:47.507Z,10.10
2018-04-30T07:04:47.474Z,9.50
2018-04-30T07:05:47.457Z,8.70
2018-04-30T07:06:47.430Z,9.20
2018-04-30T07:07:47.403Z,7.70
2018-04-30T07:08:47.380Z,7.80
2018-04-30T07:09:47.371Z,6.70
2018-04-30T07:10:47.343Z,5.70
2018-04-30T07:11:47.299Z,4.40
2018-04-30T07:12:47.285Z,5.20
2018-04-30T07:13:47.251Z,5.10
2018-04-30T07:14:47.251Z,5.40
2018-04-30T07:15:47.205Z,6.90
2018-04-30T07:16:47.171Z,7.90
2018-04-30T07:17:47.153Z,6.00
2018-04-30T07:18:47.123Z,4.50
2018-04-30T07:19:47.096Z,4.70
2018-04-30T07:20:47.071Z,4.40
2018-04-30T07:21:47.044Z,3.90
2018-04-30T07:22:47.019Z,3.40
2018-04-30T07:23:46.996Z,5.10
2018-04-30T07:24:46.972Z,3.60
2018-04-30T07:25:46.939Z,4.00
2018-04-30T07:26:46.910Z,8.50
2018-04-30T07:27:46.905Z,3.80
2018-04-30T07:28:46.860Z,3.80
2018-04-30T07:29:46.839Z,4.90
2018-04-30T07:30:46.812Z,5.10
2018-04-30T07:31:46.790Z,3.80
2018-04-30T07:32:46.766Z,2.50
2018-04-30T07:33:46.735Z,4.10
2018-04-30T07:34:46.716Z,5.70
2018-04-30T07:35:46.684Z,3.50
2018-04-30T07:36:46.654Z,2.80
2018-04-30T07:37:46.637Z,4.20
2018-04-30T07:38:46.605Z,3.60
2018-04-30T07:39:46.584Z,3.30
2018-04-30T07:40:46.562Z,4.90
2018-04-30T07:41:46.529Z,3.10
2018-04-30T07:42:46.507Z,3.60
2018-04-30T07:43:46.480Z,5.70
2018-04-30T07:44:46.458Z,7.20
2018-04-30T07:45:46.428Z,3.20
2018-04-30T07:46:46.421Z,3.70
2018-04-30T07:47:46.388Z,3.50
2018-04-30T07:48:46.359Z,3.80
2018-04-30T07:49:46.324Z,3.60
2018-04-30T07:50:46.298Z,5.20
2018-04-30T07:51:46.503Z,3.70
2018-04-30T07:52:46.253Z,3.20
2018-04-30T07:53:46.225Z,4.00
2018-04-30T07:54:46.202Z,3.80
2018-04-30T07:55:46.171Z,3.10
2018-04-30T07:56:46.144Z,4.10
2018-04-30T07:57:46.126Z,3.50
2018-04-30T07:58:46.096Z,5.30
2018-04-30T07:59:46.076Z,3.30
2018-04-30T08:00:46.109Z,3.20
2018-04-30T08:01:46.023Z,3.70
2018-04-30T08:02:46.061Z,5.10
2018-04-30T08:03:45.969Z,4.20
2018-04-30T08:04:45.982Z,3.80
2018-04-30T08:05:45.918Z,3.20
2018-04-30T08:06:45.892Z,4.30
2018-04-30T08:07:45.930Z,5.50
2018-04-30T08:08:45.835Z,2.90
2018-04-30T08:09:45.843Z,3.20
2018-04-30T08:10:45.785Z,3.30
2018-04-30T08:11:45.767Z,4.10
2018-04-30T08:12:45.766Z,3.70
2018-04-30T08:13:45.757Z,3.50
2018-04-30T08:14:45.731Z,4.00
2018-04-30T08:15:45.656Z,4.30
2018-04-30T08:16:45.631Z,4.90
2018-04-30T08:17:45.609Z,6.00
2018-04-30T08:18:45.579Z,6.00
2018-04-30T08:19:45.567Z,6.50
2018-04-30T08:20:45.528Z,7.90
2018-04-30T08:21:45.511Z,3.80
2018-04-30T08:22:45.485Z,3.00
2018-04-30T08:23:45.456Z,3.90
2018-04-30T08:24:45.498Z,5.20
2018-04-30T08:25:45.401Z,4.00
2018-04-30T08:26:45.597Z,3.90
2018-04-30T08:27:45.355Z,3.90
2018-04-30T08:28:45.323Z,4.80
2018-04-30T08:29:45.310Z,3.90
2018-04-30T08:30:45.269Z,3.30
2018-04-30T08:31:45.250Z,5.20
2018-04-30T08:32:45.224Z,4.80
2018-04-30T08:33:45.199Z,4.90
2018-04-30T08:34:45.170Z,3.10
2018-04-30T08:35:45.152Z,2.40
2018-04-30T08:36:45.233Z,3.00
2018-04-30T08:37:45.091Z,2.80
2018-04-30T08:38:45.071Z,2.70
2018-04-30T08:39:45.097Z,2.90
2018-04-30T08:40:45.022Z,2.70
2018-04-30T08:41:44.996Z,3.90
2018-04-30T08:42:44.978Z,2.50
2018-04-30T08:43:45.004Z,3.90
2018-04-30T08:44:44.921Z,5.10
2018-04-30T08:45:44.892Z,3.40
2018-04-30T08:46:44.862Z,4.60
2018-04-30T08:47:44.840Z,3.50
2018-04-30T08:48:44.812Z,2.60
2018-04-30T08:49:44.868Z,5.00
2018-04-30T08:50:44.764Z,4.30
2018-04-30T08:51:44.741Z,3.90
2018-04-30T08:52:44.778Z,3.50
2018-04-30T08:53:44.706Z,2.90
2018-04-30T08:54:44.663Z,5.90
2018-04-30T08:55:44.628Z,4.20
2018-04-30T08:56:44.667Z,3.60
2018-04-30T08:57:44.636Z,3.90
2018-04-30T08:58:44.609Z,3.00
2018-04-30T08:59:44.557Z,3.00
2018-04-30T09:00:44.856Z,3.60
2018-04-30T09:01:44.479Z,3.40
2018-04-30T09:02:44.455Z,3.60
2018-04-30T09:03:44.435Z,3.30
2018-04-30T09:04:44.404Z,4.50
2018-04-30T09:05:44.383Z,4.90
2018-04-30T09:06:44.357Z,4.80
2018-04-30T09:07:44.463Z,3.60
2018-04-30T09:08:44.313Z,3.50
2018-04-30T09:09:44.281Z,2.70
2018-04-30T09:10:44.279Z,3.70
2018-04-30T09:11:44.294Z,4.40
2018-04-30T09:12:44.202Z,2.90
2018-04-30T09:13:44.229Z,3.20
2018-04-30T09:14:44.145Z,4.30
2018-04-30T09:15:44.188Z,4.50
2018-04-30T09:16:44.099Z,3.90
2018-04-30T09:17:44.088Z,4.60
2018-04-30T09:18:44.107Z,3.80
2018-04-30T09:19:44.028Z,3.90
2018-04-30T09:20:44.118Z,4.30
2018-04-30T09:21:44.057Z,3.50
2018-04-30T09:22:43.948Z,4.40
2018-04-30T09:23:44.051Z,3.60
2018-04-30T09:24:43.944Z,2.80
2018-04-30T09:25:43.924Z,6.30
2018-04-30T09:26:43.839Z,3.00
2018-04-30T09:27:43.833Z,2.60
2018-04-30T09:28:43.840Z,3.10
2018-04-30T09:29:43.824Z,2.70
2018-04-30T09:30:43.799Z,3.20
2018-04-30T09:31:43.726Z,5.00
2018-04-30T09:32:43.754Z,4.90
2018-04-30T09:33:43.792Z,3.70
2018-04-30T09:34:43.764Z,4.90
2018-04-30T09:35:43.671Z,3.10
2018-04-30T09:36:43.591Z,2.60
2018-04-30T09:37:43.568Z,4.10
2018-04-30T09:38:43.545Z,3.00
2018-04-30T09:39:43.609Z,4.20
2018-04-30T09:40:43.489Z,2.40
2018-04-30T09:41:43.490Z,4.70
2018-04-30T09:42:43.460Z,3.10
2018-04-30T09:43:43.477Z,5.70
2018-04-30T09:44:43.409Z,2.30
2018-04-30T09:45:43.363Z,3.20
2018-04-30T09:46:43.334Z,1.90
2018-04-30T09:47:43.411Z,2.10
2018-04-30T09:48:43.280Z,3.90
2018-04-30T09:49:43.284Z,2.90
2018-04-30T09:50:43.236Z,2.60
2018-04-30T09:51:43.251Z,2.20
2018-04-30T09:52:43.234Z,2.50
2018-04-30T09:53:43.159Z,1.90
2018-04-30T09:54:43.169Z,4.00
2018-04-30T09:55:43.178Z,2.90
2018-04-30T09:56:43.089Z,1.80
2018-04-30T09:57:43.174Z,2.20
2018-04-30T09:58:43.040Z,2.30
2018-04-30T09:59:43.063Z,2.90
2018-04-30T10:00:42.986Z,2.00
2018-04-30T10:01:42.956Z,2.40
2018-04-30T10:02:42.929Z,2.40
2018-04-30T10:03:42.909Z,3.20
2018-04-30T10:04:42.937Z,3.40
2018-04-30T10:05:42.916Z,1.50
2018-04-30T10:06:42.900Z,1.70
2018-04-30T10:07:42.801Z,1.90
2018-04-30T10:08:42.785Z,2.10
2018-04-30T10:09:42.763Z,4.60
2018-04-30T10:10:42.726Z,1.60
2018-04-30T10:11:42.707Z,1.40
2018-04-30T10:12:42.676Z,2.40
2018-04-30T10:13:42.676Z,1.30
2018-04-30T10:14:42.633Z,3.30
2018-04-30T10:15:42.601Z,4.00
2018-04-30T10:16:42.645Z,1.30
2018-04-30T10:17:42.707Z,2.40
2018-04-30T10:18:42.524Z,3.00
2018-04-30T10:19:42.508Z,3.40
2018-04-30T10:20:42.480Z,2.90
2018-04-30T10:21:42.517Z,2.10
2018-04-30T10:22:42.512Z,1.90
2018-04-30T10:23:42.460Z,1.70
2018-04-30T10:24:42.416Z,3.00
2018-04-30T10:25:42.473Z,2.40
2018-04-30T10:26:42.333Z,4.80
2018-04-30T10:27:42.299Z,1.90
2018-04-30T10:28:42.347Z,3.20
2018-04-30T10:29:42.253Z,2.50
2018-04-30T10:30:42.361Z,3.60
2018-04-30T10:31:42.284Z,2.30
2018-04-30T10:32:42.268Z,2.80
2018-04-30T10:33:42.199Z,1.50
2018-04-30T10:34:42.217Z,2.20
2018-04-30T10:35:42.196Z,1.90
2018-04-30T10:36:42.123Z,2.70
2018-04-30T10:37:42.124Z,2.30
2018-04-30T10:38:42.057Z,3.80
2018-04-30T10:39:42.052Z,4.20
2018-04-30T10:40:42.017Z,1.30
2018-04-30T10:41:42.015Z,3.70
2018-04-30T10:42:41.933Z,1.80
2018-04-30T10:43:41.905Z,3.00
2018-04-30T10:44:41.882Z,1.70
2018-04-30T10:45:41.915Z,2.40
2018-04-30T10:46:41.829Z,2.20
2018-04-30T10:47:41.900Z,4.20
2018-04-30T10:48:41.806Z,1.90
2018-04-30T10:49:41.809Z,2.10
2018-04-30T10:50:41.740Z,1.40
2018-04-30T10:51:41.902Z,3.30
2018-04-30T10:52:41.746Z,1.50
2018-04-30T10:53:41.687Z,2.80
2018-04-30T10:54:41.635Z,3.30
2018-04-30T10:55:41.799Z,2.50
2018-04-30T10:56:41.579Z,1.50
2018-04-30T10:57:41.578Z,1.30
2018-04-30T10:58:41.531Z,1.50
2018-04-30T10:59:41.537Z,4.30
2018-04-30T11:00:41.555Z,2.10
2018-04-30T11:01:41.464Z,3.20
2018-04-30T11:02:41.515Z,4.50
2018-04-30T11:03:41.431Z,1.90
2018-04-30T11:04:41.389Z,1.40
2018-04-30T11:05:41.364Z,3.40
2018-04-30T11:06:41.414Z,1.60
2018-04-30T11:07:41.372Z,1.90
2018-04-30T11:08:41.287Z,1.60
2018-04-30T11:09:41.264Z,3.90
2018-04-30T11:10:41.249Z,2.40
2018-04-30T11:11:41.208Z,3.20
2018-04-30T11:12:41.193Z,2.00
2018-04-30T11:13:41.167Z,2.40
2018-04-30T11:14:41.134Z,3.60
2018-04-30T11:15:41.199Z,3.20
2018-04-30T11:16:41.166Z,3.10
2018-04-30T11:17:41.071Z,2.10
2018-04-30T11:18:41.103Z,2.40
2018-04-30T11:19:41.070Z,1.40
2018-04-30T11:20:41.085Z,1.40
2018-04-30T11:21:40.963Z,1.50
2018-04-30T11:22:40.990Z,1.80
2018-04-30T11:23:40.944Z,4.40
2018-04-30T11:24:40.956Z,2.10
2018-04-30T11:25:40.935Z,2.10
2018-04-30T11:26:40.843Z,2.00
2018-04-30T11:27:40.972Z,2.10
2018-04-30T11:28:40.884Z,1.80
2018-04-30T11:29:40.795Z,1.30
2018-04-30T11:30:40.743Z,2.70
2018-04-30T11:31:40.804Z,2.00
2018-04-30T11:32:40.756Z,1.40
2018-04-30T11:33:40.675Z,2.70
2018-04-30T11:34:40.650Z,1.80
2018-04-30T11:35:40.668Z,2.30
2018-04-30T11:36:40.660Z,3.40
2018-04-30T11:37:40.681Z,2.00
2018-04-30T11:38:40.546Z,2.70
2018-04-30T11:39:40.557Z,3.20
2018-04-30T11:40:40.608Z,3.10
2018-04-30T11:41:40.474Z,1.90
2018-04-30T11:42:40.447Z,1.80
2018-04-30T11:43:40.423Z,2.50
2018-04-30T11:44:40.405Z,2.00
2018-04-30T11:45:40.378Z,2.60
2018-04-30T11:46:40.357Z,3.60
2018-04-30T11:47:40.331Z,3.60
2018-04-30T11:48:40.318Z,2.40
2018-04-30T11:49:40.362Z,2.00
2018-04-30T11:50:40.258Z,2.90
2018-04-30T11:51:40.225Z,2.80
2018-04-30T11:52:40.208Z,3.00
2018-04-30T11:53:40.183Z,2.20
2018-04-30T11:54:40.161Z,2.70
2018-04-30T11:55:40.134Z,2.90
2018-04-30T11:56:40.106Z,2.00
2018-04-30T11:57:40.077Z,3.10
2018-04-30T11:58:40.063Z,2.30
2018-04-30T11:59:40.069Z,1.90
2018-04-30T12:00:40.064Z,2.60
2018-04-30T12:01:39.992Z,1.80
2018-04-30T12:02:39.966Z,2.70
2018-04-30T12:03:39.948Z,1.30
2018-04-30T12:04:39.908Z,1.90
2018-04-30T12:05:39.886Z,3.50
2018-04-30T12:06:39.861Z,2.30
2018-04-30T12:07:39.833Z,1.80
2018-04-30T12:08:39.812Z,2.00
2018-04-30T12:09:39.785Z,1.10
2018-04-30T12:10:39.761Z,2.50
2018-04-30T12:11:39.740Z,2.20
2018-04-30T12:12:39.712Z,1.30
2018-04-30T12:13:39.693Z,3.30
2018-04-30T12:14:39.662Z,1.90
2018-04-30T12:15:39.664Z,2.50
2018-04-30T12:16:39.647Z,2.50
2018-04-30T12:17:39.588Z,2.20
2018-04-30T12:18:39.568Z,2.10
2018-04-30T12:19:39.547Z,1.20
2018-04-30T12:20:39.521Z,2.90
2018-04-30T12:21:39.494Z,2.60
2018-04-30T12:22:39.475Z,3.00
2018-04-30T12:23:39.444Z,3.20
2018-04-30T12:24:39.425Z,0.80
2018-04-30T12:25:39.398Z,1.50
2018-04-30T12:26:39.390Z,1.90
2018-04-30T12:27:39.359Z,2.80
2018-04-30T12:28:39.376Z,1.90
2018-04-30T12:29:39.298Z,2.30
2018-04-30T12:30:39.271Z,2.50
2018-04-30T12:31:39.320Z,1.70
2018-04-30T12:32:39.226Z,2.50
2018-04-30T12:33:39.223Z,4.00
2018-04-30T12:34:39.209Z,2.70
2018-04-30T12:35:39.156Z,2.80
2018-04-30T12:36:39.137Z,3.00
2018-04-30T12:37:39.102Z,3.70
2018-04-30T12:38:39.140Z,4.20
2018-04-30T12:39:39.066Z,4.40
2018-04-30T12:40:39.034Z,3.30
2018-04-30T12:41:39.015Z,3.10
2018-04-30T12:42:38.992Z,2.90
2018-04-30T12:43:39.065Z,4.00
2018-04-30T12:44:39.003Z,2.60
2018-04-30T12:45:38.936Z,1.80
2018-04-30T12:46:38.945Z,3.50
2018-04-30T12:47:38.876Z,2.80
2018-04-30T12:48:38.892Z,3.10
2018-04-30T12:49:38.875Z,2.50
2018-04-30T12:50:38.844Z,1.00
2018-04-30T12:51:38.831Z,2.30
2018-04-30T12:52:38.743Z,1.70
2018-04-30T12:53:38.784Z,5.10